Time;durP1;ratioP1;P1;durP2;ratioP2;P2;SDS_P1;SDS_P2;PMS_P1;PMS_P2;Temp;Humidity;BMP_temperature;BMP_pressure;BME280_temperature;BME280_humidity;BME280_pressure;Samples;Min_cycle;Max_cycle;Signal;HPM_P1;HPM_P2
2023/12/24 00:01:58;;;;;;;9.15;2.03;;;9.50;99.90;;;;;;5105722;28;20028;-80
2023/12/24 00:04:23;;;;;;;14.93;3.47;;;9.40;99.90;;;;;;5102375;28;20126;-80
2023/12/24 00:06:49;;;;;;;6.43;1.70;;;9.30;99.90;;;;;;5125131;27;20113;-80
2023/12/24 00:09:14;;;;;;;10.73;2.05;;;9.40;99.90;;;;;;5097632;28;20035;-80
2023/12/24 00:11:40;;;;;;;11.27;2.42;;;9.60;99.90;;;;;;5141249;27;20043;-81
2023/12/24 00:14:06;;;;;;;7.70;1.63;;;9.50;99.90;;;;;;5130113;27;20082;-80
2023/12/24 00:16:31;;;;;;;9.05;2.10;;;9.40;99.90;;;;;;5129707;27;20035;-81
2023/12/24 00:18:57;;;;;;;9.93;2.50;;;9.50;99.90;;;;;;5129800;27;20048;-80
2023/12/24 00:21:24;;;;;;;8.55;2.15;;;9.40;99.90;;;;;;5129641;27;20047;-81
2023/12/24 00:23:49;;;;;;;10.43;2.25;;;9.40;99.90;;;;;;5126757;27;20094;-82
2023/12/24 00:26:16;;;;;;;10.38;2.30;;;9.30;99.90;;;;;;5129499;27;20074;-83
2023/12/24 00:28:42;;;;;;;11.77;2.03;;;9.30;99.90;;;;;;5128969;27;20118;-80
2023/12/24 00:31:07;;;;;;;10.40;2.70;;;9.30;99.90;;;;;;5129384;28;20531;-80
2023/12/24 00:33:33;;;;;;;12.43;2.67;;;9.30;99.90;;;;;;5092969;28;20407;-80
2023/12/24 00:35:59;;;;;;;9.77;2.20;;;9.30;99.90;;;;;;5128297;27;20032;-81
2023/12/24 00:38:24;;;;;;;11.43;2.40;;;9.30;99.90;;;;;;5095540;28;20546;-81
2023/12/24 00:40:50;;;;;;;14.38;2.38;;;9.30;99.90;;;;;;5095051;28;20043;-80
2023/12/24 00:43:15;;;;;;;10.05;1.83;;;9.50;99.90;;;;;;5094191;28;20089;-80
2023/12/24 00:45:41;;;;;;;9.15;2.38;;;9.50;99.90;;;;;;5094884;28;20399;-81
2023/12/24 00:48:09;;;;;;;13.27;2.30;;;9.50;99.90;;;;;;5112144;28;20538;-81
2023/12/24 00:50:35;;;;;;;8.10;2.60;;;9.40;99.90;;;;;;5094606;28;20040;-80
2023/12/24 00:53:00;;;;;;;14.13;2.50;;;9.50;99.90;;;;;;5128462;27;20038;-81
2023/12/24 00:55:26;;;;;;;12.68;2.30;;;9.50;99.90;;;;;;5126317;27;20132;-80
2023/12/24 00:57:52;;;;;;;10.07;3.05;;;9.40;99.90;;;;;;5128300;27;20040;-79
2023/12/24 01:00:17;;;;;;;9.32;2.38;;;9.30;99.90;;;;;;5094216;28;20040;-80
2023/12/24 01:02:43;;;;;;;10.35;2.80;;;9.40;99.90;;;;;;5116060;27;20035;-80
2023/12/24 01:05:08;;;;;;;13.15;2.70;;;9.40;99.90;;;;;;5149150;27;20484;-79
2023/12/24 01:07:34;;;;;;;10.00;2.65;;;9.40;99.90;;;;;;5133023;27;20399;-79
2023/12/24 01:10:00;;;;;;;13.43;2.20;;;9.30;99.90;;;;;;5115299;27;20040;-79
2023/12/24 01:12:25;;;;;;;7.55;2.55;;;9.30;99.90;;;;;;5115823;28;20031;-80
2023/12/24 01:14:51;;;;;;;4.25;1.00;;;9.40;99.90;;;;;;5097519;28;20066;-78
2023/12/24 01:17:16;;;;;;;11.98;2.85;;;9.50;99.90;;;;;;5149075;27;20044;-79
2023/12/24 01:19:43;;;;;;;7.30;1.73;;;9.40;99.90;;;;;;5114717;28;20043;-79
2023/12/24 01:22:09;;;;;;;8.90;2.28;;;9.50;99.90;;;;;;5115625;28;20088;-79
2023/12/24 01:24:35;;;;;;;12.82;2.85;;;9.50;99.90;;;;;;5097393;28;20156;-80
2023/12/24 01:27:00;;;;;;;9.63;2.03;;;9.40;99.90;;;;;;5132545;27;20035;-80
2023/12/24 01:29:26;;;;;;;12.00;2.83;;;9.50;99.90;;;;;;5097746;28;20110;-80
2023/12/24 01:31:52;;;;;;;9.13;2.45;;;9.40;99.90;;;;;;5115618;28;20035;-82
2023/12/24 01:34:18;;;;;;;14.70;3.28;;;9.30;99.90;;;;;;5097109;28;20084;-80
2023/12/24 01:36:43;;;;;;;9.32;2.20;;;9.40;99.90;;;;;;5132404;27;20040;-81
2023/12/24 01:39:10;;;;;;;13.20;2.40;;;9.30;99.90;;;;;;5114392;28;20122;-80
2023/12/24 01:41:35;;;;;;;9.90;1.73;;;9.50;99.90;;;;;;5115246;28;20043;-81
2023/12/24 01:44:01;;;;;;;6.45;1.80;;;9.50;99.90;;;;;;5114932;27;20080;-81
2023/12/24 01:46:28;;;;;;;9.48;1.88;;;9.30;99.90;;;;;;5132309;27;20116;-81
2023/12/24 01:48:54;;;;;;;5.05;1.67;;;9.40;99.90;;;;;;5113590;27;20032;-81
2023/12/24 01:51:21;;;;;;;7.95;1.98;;;9.40;99.90;;;;;;5095609;28;20036;-80
2023/12/24 01:53:52;;;;;;;9.55;2.10;;;9.30;99.90;;;;;;5148659;27;20395;-81
2023/12/24 01:56:21;;;;;;;4.25;1.38;;;9.30;99.90;;;;;;5121653;27;20032;-80
2023/12/24 01:58:47;;;;;;;6.63;1.63;;;9.40;99.90;;;;;;5111234;28;20056;-80
2023/12/24 02:01:13;;;;;;;9.45;1.50;;;9.30;99.90;;;;;;5129696;27;20092;-80
2023/12/24 02:03:39;;;;;;;7.60;1.40;;;9.40;99.90;;;;;;5131516;27;20117;-82
2023/12/24 02:06:08;;;;;;;6.57;1.50;;;9.40;99.90;;;;;;5097879;28;20051;-80
2023/12/24 02:08:36;;;;;;;4.35;1.55;;;9.40;99.90;;;;;;5114809;28;20046;-81
2023/12/24 02:11:03;;;;;;;6.60;1.70;;;9.30;99.90;;;;;;5130857;27;20039;-81
2023/12/24 02:13:29;;;;;;;5.68;1.33;;;9.40;99.90;;;;;;5130109;27;20038;-80
2023/12/24 02:15:57;;;;;;;4.72;1.35;;;9.50;99.90;;;;;;5114584;28;20042;-81
2023/12/24 02:18:24;;;;;;;5.25;1.40;;;9.40;99.90;;;;;;5131954;27;20434;-79
2023/12/24 02:20:50;;;;;;;6.07;1.90;;;9.40;99.90;;;;;;5130358;27;20068;-80
2023/12/24 02:23:15;;;;;;;6.03;1.95;;;9.40;99.90;;;;;;5096577;27;20036;-80
2023/12/24 02:25:41;;;;;;;4.65;1.40;;;9.30;99.90;;;;;;5131440;27;20122;-81
2023/12/24 02:28:19;;;;;;;6.13;1.60;;;9.40;99.90;;;;;;5113704;28;20070;-79
2023/12/24 02:30:50;;;;;;;5.93;1.38;;;9.30;99.90;;;;;;5146683;27;20050;-79
2023/12/24 02:33:17;;;;;;;4.15;1.20;;;9.40;99.90;;;;;;5130763;27;20075;-79
2023/12/24 02:35:46;;;;;;;6.55;1.60;;;9.40;99.90;;;;;;5112596;27;20434;-80
2023/12/24 02:38:11;;;;;;;4.72;1.42;;;9.50;99.90;;;;;;5096500;28;20044;-80
2023/12/24 02:40:37;;;;;;;6.95;1.60;;;9.50;99.90;;;;;;5146577;27;20041;-80
2023/12/24 02:43:03;;;;;;;4.85;1.75;;;9.50;99.90;;;;;;5114222;28;20492;-82
2023/12/24 02:45:28;;;;;;;7.55;2.17;;;9.40;99.90;;;;;;5113172;28;20089;-80
2023/12/24 02:47:54;;;;;;;7.88;2.53;;;9.40;99.90;;;;;;5114356;28;20365;-80
2023/12/24 02:50:20;;;;;;;8.43;1.40;;;9.40;99.90;;;;;;5131023;27;20480;-80
2023/12/24 02:52:46;;;;;;;6.57;1.45;;;9.50;99.90;;;;;;5130092;27;20043;-81
2023/12/24 02:55:12;;;;;;;10.55;2.00;;;9.60;99.90;;;;;;5096062;28;20039;-81
2023/12/24 02:57:38;;;;;;;9.32;1.75;;;9.60;99.90;;;;;;5130742;27;20036;-80
2023/12/24 03:00:08;;;;;;;6.35;1.38;;;9.50;99.90;;;;;;5148073;27;20036;-80
2023/12/24 03:02:34;;;;;;;10.20;2.10;;;9.60;99.90;;;;;;5129293;27;20046;-82
2023/12/24 03:05:00;;;;;;;8.13;1.58;;;9.60;99.90;;;;;;5096000;28;20488;-80
2023/12/24 03:07:26;;;;;;;2.97;0.95;;;9.60;99.90;;;;;;5130709;27;20096;-81
2023/12/24 03:09:52;;;;;;;5.00;1.30;;;9.60;99.90;;;;;;5130931;27;20066;-81
2023/12/24 03:12:18;;;;;;;4.53;1.05;;;9.60;99.90;;;;;;5129507;27;20484;-80
2023/12/24 03:14:43;;;;;;;4.15;1.00;;;9.70;99.90;;;;;;5112884;28;20066;-81
2023/12/24 03:17:09;;;;;;;5.55;1.10;;;9.70;99.90;;;;;;5130544;27;20071;-80
2023/12/24 03:19:34;;;;;;;6.63;1.23;;;9.70;99.90;;;;;;5130489;27;20126;-81
2023/12/24 03:22:00;;;;;;;5.07;1.20;;;9.70;99.90;;;;;;5146617;27;20047;-80
2023/12/24 03:24:26;;;;;;;2.20;0.80;;;9.70;99.90;;;;;;5111990;28;20500;-80
2023/12/24 03:26:51;;;;;;;2.85;1.60;;;9.70;99.90;;;;;;5096278;28;20469;-79
2023/12/24 03:29:17;;;;;;;3.13;1.05;;;9.60;99.90;;;;;;5129570;27;20031;-81
2023/12/24 03:31:43;;;;;;;5.97;1.10;;;9.70;99.90;;;;;;5147429;27;20476;-81
2023/12/24 03:34:09;;;;;;;4.68;0.90;;;9.60;99.90;;;;;;5128678;27;20432;-81
2023/12/24 03:36:34;;;;;;;3.88;1.25;;;9.60;99.90;;;;;;5130428;27;20487;-81
2023/12/24 03:39:00;;;;;;;3.10;0.80;;;9.70;99.90;;;;;;5096009;28;20039;-79
2023/12/24 03:41:26;;;;;;;3.58;0.70;;;9.80;99.90;;;;;;5130011;27;20047;-80
2023/12/24 03:43:52;;;;;;;3.70;0.90;;;9.80;99.90;;;;;;5128159;27;21405;-81
2023/12/24 03:46:20;;;;;;;3.42;0.73;;;9.70;99.90;;;;;;5129977;27;20043;-81
2023/12/24 03:48:46;;;;;;;1.88;0.90;;;9.60;99.90;;;;;;5129251;27;20043;-80
2023/12/24 03:51:12;;;;;;;2.08;0.63;;;9.60;99.90;;;;;;5146927;27;20404;-81
2023/12/24 03:53:38;;;;;;;3.70;0.90;;;9.80;99.90;;;;;;5129096;27;20399;-80
2023/12/24 03:56:04;;;;;;;3.38;0.98;;;9.80;99.90;;;;;;5129116;27;20518;-81
2023/12/24 03:58:30;;;;;;;1.75;0.57;;;9.70;99.90;;;;;;5129784;27;20098;-80
2023/12/24 04:00:56;;;;;;;1.70;0.60;;;9.70;99.90;;;;;;5113020;28;20047;-79
2023/12/24 04:03:22;;;;;;;3.53;1.05;;;9.70;99.90;;;;;;5128020;27;20042;-80
2023/12/24 04:05:48;;;;;;;3.70;0.95;;;9.80;99.90;;;;;;5095193;28;20043;-80
2023/12/24 04:08:15;;;;;;;3.85;1.17;;;9.70;99.90;;;;;;5129660;27;20484;-82
2023/12/24 04:10:42;;;;;;;2.47;0.73;;;9.70;99.90;;;;;;5129925;27;20035;-80
2023/12/24 04:13:07;;;;;;;2.58;0.90;;;9.80;99.90;;;;;;5146755;27;20067;-80
2023/12/24 04:15:34;;;;;;;3.85;0.85;;;9.80;99.90;;;;;;5144571;27;20129;-81
2023/12/24 04:18:03;;;;;;;1.55;0.68;;;9.80;99.90;;;;;;5146891;27;20087;-80
2023/12/24 04:20:28;;;;;;;1.92;0.63;;;9.90;99.90;;;;;;5095374;28;20044;-81
2023/12/24 04:22:54;;;;;;;3.65;0.90;;;9.90;99.90;;;;;;5095405;28;20043;-80
2023/12/24 04:25:20;;;;;;;1.10;0.57;;;9.80;99.90;;;;;;5093127;28;20126;-79
2023/12/24 04:27:45;;;;;;;3.20;0.95;;;9.80;99.90;;;;;;5110039;28;20540;-80
2023/12/24 04:30:11;;;;;;;2.70;0.93;;;9.80;99.90;;;;;;5146803;27;20114;-79
2023/12/24 04:32:37;;;;;;;0.73;0.60;;;9.80;99.90;;;;;;5146856;27;20044;-78
2023/12/24 04:35:04;;;;;;;0.95;0.63;;;9.80;99.90;;;;;;5094093;28;20510;-79
2023/12/24 04:37:29;;;;;;;0.80;0.60;;;9.70;99.90;;;;;;5099563;28;20039;-80
2023/12/24 04:39:55;;;;;;;0.40;0.40;;;9.70;99.90;;;;;;5116553;28;20515;-80
2023/12/24 04:42:21;;;;;;;1.77;0.60;;;9.80;99.90;;;;;;5099286;28;20083;-78
2023/12/24 04:44:46;;;;;;;1.15;0.60;;;9.60;99.90;;;;;;5114813;27;20483;-79
2023/12/24 04:47:12;;;;;;;1.40;0.50;;;9.70;99.90;;;;;;5099315;28;20031;-80
2023/12/24 04:49:38;;;;;;;1.38;0.63;;;9.80;99.90;;;;;;5099577;28;20040;-81
2023/12/24 04:52:04;;;;;;;2.13;0.60;;;9.90;99.90;;;;;;5116538;28;20071;-79
2023/12/24 04:54:30;;;;;;;0.40;0.40;;;9.70;99.90;;;;;;5098547;28;20511;-78
2023/12/24 04:56:57;;;;;;;1.27;0.60;;;9.60;99.90;;;;;;5149551;27;20050;-79
2023/12/24 04:59:23;;;;;;;1.38;0.70;;;9.80;99.90;;;;;;5098616;28;20392;-78
2023/12/24 05:01:49;;;;;;;1.05;0.57;;;9.70;99.90;;;;;;5099100;28;20043;-78
2023/12/24 05:04:15;;;;;;;0.95;0.70;;;9.80;99.90;;;;;;5132356;27;20067;-79
2023/12/24 05:06:41;;;;;;;1.60;0.80;;;9.80;99.90;;;;;;5129988;27;20119;-79
2023/12/24 05:09:07;;;;;;;2.05;0.75;;;9.80;99.90;;;;;;5115158;27;20107;-79
2023/12/24 05:11:33;;;;;;;2.35;0.70;;;9.80;99.90;;;;;;5150216;27;20071;-79
2023/12/24 05:14:00;;;;;;;2.65;0.90;;;9.80;99.90;;;;;;5115019;27;20038;-79
2023/12/24 05:16:25;;;;;;;1.58;0.80;;;9.80;99.90;;;;;;5132828;27;20122;-78
2023/12/24 05:18:51;;;;;;;1.70;0.80;;;9.70;99.90;;;;;;5148450;27;20476;-79
2023/12/24 05:21:17;;;;;;;2.15;0.82;;;9.80;99.90;;;;;;5098780;28;20044;-78
2023/12/24 05:23:43;;;;;;;1.70;1.00;;;9.80;99.90;;;;;;5115034;28;20035;-79
2023/12/24 05:26:08;;;;;;;0.40;0.40;;;9.70;99.90;;;;;;5097626;28;20044;-78
2023/12/24 05:28:34;;;;;;;3.17;0.95;;;9.90;99.90;;;;;;5131183;27;20036;-80
2023/12/24 05:31:00;;;;;;;2.70;1.05;;;9.80;99.90;;;;;;5097855;28;20042;-78
2023/12/24 05:33:25;;;;;;;3.08;0.93;;;9.90;99.90;;;;;;5115380;28;20028;-78
2023/12/24 05:35:51;;;;;;;2.83;0.80;;;9.80;99.90;;;;;;5115034;28;20043;-79
2023/12/24 05:38:18;;;;;;;2.60;0.88;;;9.80;99.90;;;;;;5130801;27;20059;-79
2023/12/24 05:40:43;;;;;;;1.73;0.77;;;9.80;99.90;;;;;;5097491;28;20053;-79
2023/12/24 05:43:09;;;;;;;3.15;0.90;;;9.90;99.90;;;;;;5115324;28;20043;-79
2023/12/24 05:45:35;;;;;;;3.47;1.00;;;9.90;99.90;;;;;;5097690;28;20403;-81
2023/12/24 05:48:00;;;;;;;3.75;1.20;;;10.00;99.90;;;;;;5129782;27;20381;-79
2023/12/24 05:50:27;;;;;;;4.00;1.00;;;9.90;99.90;;;;;;5098493;28;20089;-79
2023/12/24 05:52:52;;;;;;;5.03;1.40;;;9.90;99.90;;;;;;5098079;28;20085;-80
2023/12/24 05:55:18;;;;;;;1.63;0.90;;;9.90;99.90;;;;;;5097593;28;20540;-79
2023/12/24 05:57:44;;;;;;;4.18;1.45;;;9.90;99.90;;;;;;5148708;27;20036;-79
2023/12/24 06:00:10;;;;;;;2.75;1.27;;;9.90;99.90;;;;;;5114218;28;20123;-79
2023/12/24 06:02:35;;;;;;;3.63;1.38;;;9.90;99.90;;;;;;5097900;28;20042;-81
2023/12/24 06:05:02;;;;;;;2.55;0.90;;;10.00;99.90;;;;;;5097247;28;20118;-78
2023/12/24 06:07:27;;;;;;;5.75;1.67;;;10.00;99.90;;;;;;5114676;28;20040;-80
2023/12/24 06:09:53;;;;;;;2.13;1.30;;;10.00;99.90;;;;;;5112774;28;20043;-79
2023/12/24 06:12:18;;;;;;;5.82;1.42;;;10.10;99.90;;;;;;5114843;28;20032;-80
2023/12/24 06:14:44;;;;;;;6.53;1.60;;;10.10;99.90;;;;;;5114164;27;20035;-79
2023/12/24 06:17:10;;;;;;;3.92;1.65;;;10.10;99.90;;;;;;5129553;27;20456;-80
2023/12/24 06:19:35;;;;;;;4.78;1.35;;;10.10;99.90;;;;;;5114729;27;20440;-80
2023/12/24 06:22:01;;;;;;;6.35;1.70;;;10.20;99.90;;;;;;5097628;28;20104;-79
2023/12/24 06:24:27;;;;;;;6.20;1.85;;;10.20;99.90;;;;;;5112693;27;20039;-80
2023/12/24 06:26:52;;;;;;;11.57;2.20;;;10.10;99.90;;;;;;5114619;28;20043;-80
2023/12/24 06:29:18;;;;;;;8.25;2.28;;;10.10;99.90;;;;;;5146807;27;20526;-79
2023/12/24 06:31:44;;;;;;;8.60;2.58;;;10.10;99.90;;;;;;5097514;28;20038;-79
2023/12/24 06:34:11;;;;;;;7.55;2.33;;;10.20;99.90;;;;;;5096573;28;20537;-80
2023/12/24 06:36:37;;;;;;;11.10;2.90;;;10.30;99.90;;;;;;5148735;27;20035;-79
2023/12/24 06:39:03;;;;;;;6.03;1.83;;;10.30;99.90;;;;;;5114515;28;20407;-79
2023/12/24 06:41:28;;;;;;;11.98;2.30;;;10.30;99.90;;;;;;5129900;27;20040;-81
2023/12/24 06:43:54;;;;;;;12.38;2.70;;;10.30;99.90;;;;;;5096515;27;20039;-79
2023/12/24 06:46:20;;;;;;;12.57;2.20;;;10.30;99.90;;;;;;5131415;27;20039;-79
2023/12/24 06:48:46;;;;;;;11.48;3.35;;;10.30;99.90;;;;;;5097002;28;20092;-79
2023/12/24 06:51:12;;;;;;;13.77;2.95;;;10.30;99.90;;;;;;5129105;27;20027;-79
2023/12/24 06:53:37;;;;;;;10.90;2.40;;;10.30;99.90;;;;;;5113798;28;20035;-79
2023/12/24 06:56:03;;;;;;;11.38;1.95;;;10.30;99.90;;;;;;5130181;27;20032;-79
2023/12/24 06:58:29;;;;;;;11.27;2.95;;;10.30;99.90;;;;;;5095794;28;20100;-79
2023/12/24 07:00:55;;;;;;;12.95;3.58;;;10.40;99.90;;;;;;5129505;27;20118;-79
2023/12/24 07:03:20;;;;;;;14.68;3.17;;;10.40;99.90;;;;;;5146567;27;20136;-78
2023/12/24 07:05:46;;;;;;;11.68;2.40;;;10.30;99.90;;;;;;5097833;28;20036;-79
2023/12/24 07:08:12;;;;;;;5.40;1.25;;;10.40;99.90;;;;;;5148034;27;20495;-79
2023/12/24 07:10:38;;;;;;;13.85;2.75;;;10.50;99.90;;;;;;5147999;27;20484;-81
2023/12/24 07:13:04;;;;;;;7.40;1.52;;;10.40;99.90;;;;;;5113022;27;20130;-81
2023/12/24 07:15:37;;;;;;;12.18;2.53;;;10.50;99.90;;;;;;5096011;28;20040;-77
2023/12/24 07:18:03;;;;;;;15.73;3.00;;;10.40;99.90;;;;;;5146413;27;20039;-78
2023/12/24 07:20:29;;;;;;;14.50;2.53;;;10.50;99.90;;;;;;5096403;28;20040;-79
2023/12/24 07:22:54;;;;;;;12.80;2.92;;;10.50;99.90;;;;;;5146912;27;20126;-80
2023/12/24 07:25:20;;;;;;;12.23;2.60;;;10.40;99.90;;;;;;5127271;27;20032;-79
2023/12/24 07:27:46;;;;;;;11.07;2.50;;;10.50;99.90;;;;;;5097289;28;20526;-78
2023/12/24 07:30:12;;;;;;;14.02;2.58;;;10.50;99.90;;;;;;5127979;27;20044;-77
2023/12/24 07:32:43;;;;;;;13.75;2.70;;;10.50;99.90;;;;;;5107953;27;20050;-77
2023/12/24 07:35:09;;;;;;;13.07;3.67;;;10.50;99.90;;;;;;5076969;28;20032;-77
2023/12/24 07:37:34;;;;;;;14.82;2.90;;;10.50;99.90;;;;;;5104782;28;20039;-81
2023/12/24 07:40:00;;;;;;;14.15;3.33;;;10.50;99.90;;;;;;5116301;27;20407;-77
2023/12/24 07:42:25;;;;;;;13.23;2.28;;;10.50;99.90;;;;;;5101792;27;20050;-77
2023/12/24 07:44:51;;;;;;;13.55;2.92;;;10.50;99.90;;;;;;5078129;28;20128;-79
2023/12/24 07:47:17;;;;;;;10.60;2.17;;;10.50;99.90;;;;;;5073494;28;20396;-77
2023/12/24 07:49:42;;;;;;;11.77;2.63;;;10.50;99.90;;;;;;5135412;27;20492;-77
2023/12/24 07:52:08;;;;;;;11.20;2.88;;;10.50;99.90;;;;;;5083549;28;20089;-78
2023/12/24 07:54:34;;;;;;;9.32;2.50;;;10.70;99.90;;;;;;5077018;28;20035;-78
2023/12/24 07:57:00;;;;;;;10.02;1.90;;;10.70;99.90;;;;;;5103886;27;20050;-78
2023/12/24 07:59:25;;;;;;;11.00;2.85;;;10.80;99.90;;;;;;5115834;27;20078;-79
2023/12/24 08:01:51;;;;;;;12.52;3.20;;;10.80;99.90;;;;;;5080335;27;20039;-78
2023/12/24 08:04:16;;;;;;;12.95;2.83;;;10.70;99.90;;;;;;5081825;27;20039;-78
2023/12/24 08:06:42;;;;;;;8.23;2.40;;;10.60;99.90;;;;;;5088661;27;20488;-78
2023/12/24 08:09:10;;;;;;;10.68;2.60;;;10.70;99.90;;;;;;5128567;27;20027;-80
2023/12/24 08:11:36;;;;;;;12.85;2.45;;;10.70;99.90;;;;;;5126587;27;20039;-79
2023/12/24 08:14:02;;;;;;;11.82;2.58;;;10.70;99.90;;;;;;5095921;28;20046;-77
2023/12/24 08:16:31;;;;;;;14.82;2.65;;;10.70;99.90;;;;;;5103442;28;20055;-78
2023/12/24 08:18:58;;;;;;;9.98;2.53;;;10.70;99.90;;;;;;5116243;27;20884;-78
2023/12/24 08:21:24;;;;;;;12.80;2.65;;;10.70;99.90;;;;;;5100721;27;20039;-78
2023/12/24 08:23:50;;;;;;;11.55;2.40;;;10.70;99.90;;;;;;5064729;28;20062;-77
2023/12/24 08:26:18;;;;;;;6.72;2.38;;;10.80;99.90;;;;;;5078830;28;20039;-78
2023/12/24 08:28:44;;;;;;;15.98;2.45;;;10.90;99.90;;;;;;5101806;27;20050;-77
2023/12/24 08:31:10;;;;;;;16.00;3.40;;;10.80;99.90;;;;;;5092628;28;20114;-79
2023/12/24 08:33:36;;;;;;;11.68;2.40;;;10.80;99.90;;;;;;5107427;28;20054;-78
2023/12/24 08:36:03;;;;;;;10.10;2.22;;;10.80;99.90;;;;;;5070058;28;20039;-78
2023/12/24 08:38:29;;;;;;;13.18;2.60;;;10.80;99.90;;;;;;5123242;27;20043;-78
2023/12/24 08:40:54;;;;;;;12.25;2.85;;;10.80;99.90;;;;;;5126992;28;20491;-78
2023/12/24 08:43:20;;;;;;;13.20;2.75;;;10.80;99.90;;;;;;5111713;28;20047;-77
2023/12/24 08:45:45;;;;;;;15.88;3.20;;;10.80;99.90;;;;;;5091189;28;20039;-78
2023/12/24 08:48:11;;;;;;;5.60;2.08;;;10.80;99.90;;;;;;5117697;27;20066;-77
2023/12/24 08:50:37;;;;;;;10.70;2.63;;;10.90;99.90;;;;;;5086585;28;20043;-77
2023/12/24 08:53:02;;;;;;;11.32;2.85;;;10.90;99.90;;;;;;5080001;28;20715;-78
2023/12/24 08:55:28;;;;;;;14.13;2.95;;;10.90;99.90;;;;;;5079061;28;20036;-78
2023/12/24 08:57:54;;;;;;;5.25;1.70;;;10.90;99.90;;;;;;5122080;27;20542;-78
2023/12/24 09:00:20;;;;;;;9.38;3.10;;;10.90;99.90;;;;;;5104835;27;20075;-77
2023/12/24 09:02:46;;;;;;;14.30;3.80;;;10.90;99.90;;;;;;5121396;27;20052;-80
2023/12/24 09:05:12;;;;;;;9.82;3.08;;;10.90;99.90;;;;;;5079828;28;20044;-77
2023/12/24 09:07:38;;;;;;;13.90;3.70;;;10.90;99.90;;;;;;5096465;27;20039;-78
2023/12/24 09:10:04;;;;;;;6.78;1.80;;;10.90;99.90;;;;;;5081032;28;20228;-77
2023/12/24 09:12:30;;;;;;;11.35;2.63;;;11.00;99.90;;;;;;5114022;27;20681;-77
2023/12/24 09:14:56;;;;;;;14.52;4.00;;;11.00;99.90;;;;;;5106226;27;20055;-78
2023/12/24 09:17:21;;;;;;;11.00;2.70;;;11.00;99.90;;;;;;5084184;28;20412;-78
2023/12/24 09:19:47;;;;;;;16.25;2.97;;;11.00;99.90;;;;;;5123190;27;20031;-77
2023/12/24 09:22:12;;;;;;;16.30;3.63;;;10.90;99.90;;;;;;5107334;27;20521;-77
2023/12/24 09:24:38;;;;;;;14.10;4.45;;;10.90;99.90;;;;;;5107510;27;20043;-78
2023/12/24 09:27:04;;;;;;;14.23;3.63;;;10.90;99.90;;;;;;5099755;27;20036;-77
2023/12/24 09:29:30;;;;;;;9.82;2.80;;;10.90;99.90;;;;;;5125111;27;20047;-78
2023/12/24 09:31:56;;;;;;;12.05;2.67;;;11.00;99.90;;;;;;5096814;28;20032;-78
2023/12/24 09:34:21;;;;;;;10.77;3.22;;;11.00;99.90;;;;;;5093846;28;20028;-77
2023/12/24 09:36:47;;;;;;;15.48;3.40;;;11.00;99.90;;;;;;5097530;28;20066;-78
2023/12/24 09:39:13;;;;;;;13.07;2.97;;;11.00;99.90;;;;;;5147540;27;20131;-77
2023/12/24 09:41:38;;;;;;;10.20;2.63;;;11.00;99.90;;;;;;5148522;27;20487;-77
2023/12/24 09:44:07;;;;;;;13.93;2.88;;;11.00;99.90;;;;;;5126309;27;20459;-78
2023/12/24 09:46:33;;;;;;;12.23;3.28;;;11.10;99.90;;;;;;5125501;27;20097;-78
2023/12/24 09:48:58;;;;;;;12.65;2.70;;;11.00;99.90;;;;;;5127643;27;20467;-77
2023/12/24 09:51:26;;;;;;;11.77;3.00;;;11.10;99.90;;;;;;5130915;27;20031;-78
2023/12/24 09:53:54;;;;;;;12.93;3.25;;;11.20;99.90;;;;;;5147530;27;20084;-78
2023/12/24 09:56:20;;;;;;;16.08;3.53;;;11.20;99.90;;;;;;5110961;27;20044;-77
2023/12/24 09:58:47;;;;;;;12.52;2.92;;;11.20;99.90;;;;;;5106055;27;20047;-77
2023/12/24 10:01:13;;;;;;;12.95;3.60;;;11.20;99.90;;;;;;5119904;27;20085;-77
2023/12/24 10:03:38;;;;;;;11.57;3.22;;;11.30;99.90;;;;;;5111106;28;20059;-76
2023/12/24 10:06:04;;;;;;;10.32;2.25;;;11.30;99.90;;;;;;5114083;28;20073;-77
2023/12/24 10:08:31;;;;;;;11.48;2.92;;;11.40;99.90;;;;;;5112563;28;20065;-78
2023/12/24 10:11:10;;;;;;;14.05;3.42;;;11.30;99.90;;;;;;5086438;28;20551;-78
2023/12/24 10:13:36;;;;;;;11.85;2.72;;;11.30;99.90;;;;;;5111262;28;20381;-76
2023/12/24 10:16:05;;;;;;;14.35;3.47;;;11.40;99.90;;;;;;5111457;28;20051;-77
2023/12/24 10:18:32;;;;;;;13.20;3.28;;;11.30;99.90;;;;;;5139531;27;20043;-78
2023/12/24 10:21:06;;;;;;;17.13;3.90;;;11.30;99.90;;;;;;5094653;28;20035;-78
2023/12/24 10:23:32;;;;;;;14.27;4.38;;;11.30;99.90;;;;;;5118174;27;20035;-78
2023/12/24 10:26:11;;;;;;;13.88;3.75;;;11.30;99.90;;;;;;5090062;28;20043;-78
2023/12/24 10:28:49;;;;;;;8.80;3.03;;;11.30;99.90;;;;;;5130119;27;20035;-78
2023/12/24 10:31:14;;;;;;;10.27;2.22;;;11.50;99.90;;;;;;5124673;27;20036;-77
2023/12/24 10:33:41;;;;;;;10.52;3.03;;;11.50;99.90;;;;;;5141761;27;20039;-78
2023/12/24 10:36:07;;;;;;;12.70;3.63;;;11.50;99.90;;;;;;5099943;28;20047;-78
2023/12/24 10:38:35;;;;;;;11.77;3.15;;;11.50;99.90;;;;;;5112329;28;20050;-77
2023/12/24 10:41:02;;;;;;;6.60;2.50;;;11.40;99.90;;;;;;5110271;28;20514;-77
2023/12/24 10:43:28;;;;;;;11.68;2.95;;;11.60;99.90;;;;;;5144738;27;20088;-77
2023/12/24 10:45:55;;;;;;;13.82;3.45;;;11.60;99.90;;;;;;5126984;27;20513;-79
2023/12/24 10:48:21;;;;;;;8.52;2.60;;;11.50;99.90;;;;;;5095540;28;20032;-77
2023/12/24 10:50:47;;;;;;;11.98;3.40;;;11.50;99.90;;;;;;5095812;28;20042;-77
2023/12/24 10:53:13;;;;;;;16.50;4.13;;;11.60;99.90;;;;;;5095310;28;20078;-77
2023/12/24 10:55:44;;;;;;;8.27;2.40;;;11.60;99.90;;;;;;5090431;28;20119;-77
2023/12/24 10:58:22;;;;;;;11.02;3.15;;;11.60;99.90;;;;;;5093583;27;20079;-77
2023/12/24 11:00:48;;;;;;;11.55;2.97;;;11.60;99.90;;;;;;5110837;28;20043;-78
2023/12/24 11:03:43;;;;;;;15.40;3.63;;;11.60;99.90;;;;;;5103438;28;20047;-77
2023/12/24 11:06:09;;;;;;;9.07;3.20;;;11.60;99.90;;;;;;5123912;27;20058;-77
2023/12/24 11:08:35;;;;;;;5.13;2.10;;;11.70;99.90;;;;;;5112509;27;20040;-77
2023/12/24 11:11:08;;;;;;;11.43;3.00;;;11.70;99.90;;;;;;5097199;28;20372;-77
2023/12/24 11:13:36;;;;;;;17.02;3.67;;;11.90;99.90;;;;;;5128591;27;20114;-76
2023/12/24 11:16:07;;;;;;;14.50;3.90;;;11.80;99.90;;;;;;5125745;27;20078;-77
2023/12/24 11:18:46;;;;;;;13.55;3.90;;;11.70;99.90;;;;;;5095562;28;20043;-77
2023/12/24 11:21:21;;;;;;;8.60;2.38;;;11.70;99.90;;;;;;5095919;28;20442;-77
2023/12/24 11:24:12;;;;;;;11.63;3.50;;;11.80;99.90;;;;;;5085879;28;20383;-76
2023/12/24 11:26:48;;;;;;;12.55;2.90;;;11.80;99.90;;;;;;5095607;28;20044;-77
2023/12/24 11:29:48;;;;;;;13.27;3.17;;;11.80;99.90;;;;;;5124802;27;20491;-76
2023/12/24 11:32:26;;;;;;;11.30;2.55;;;11.80;99.90;;;;;;5111586;28;20044;-77
2023/12/24 11:34:53;;;;;;;11.52;3.00;;;11.80;99.90;;;;;;5109253;27;20121;-76
2023/12/24 11:37:31;;;;;;;8.32;2.08;;;11.80;99.90;;;;;;5112171;28;20085;-77
2023/12/24 11:40:04;;;;;;;9.18;2.70;;;11.90;99.90;;;;;;5091730;28;20032;-76
2023/12/24 11:42:40;;;;;;;10.68;2.45;;;11.80;99.90;;;;;;5114615;27;20100;-76
2023/12/24 11:45:06;;;;;;;6.65;2.22;;;11.80;99.90;;;;;;5141585;27;20067;-76
2023/12/24 11:47:33;;;;;;;9.90;2.85;;;11.90;99.90;;;;;;5129388;27;20142;-77
2023/12/24 11:49:59;;;;;;;9.13;2.80;;;11.90;99.90;;;;;;5112233;28;20104;-77
2023/12/24 11:52:26;;;;;;;8.82;2.90;;;11.90;99.90;;;;;;5109378;27;20488;-78
2023/12/24 11:54:52;;;;;;;11.98;2.50;;;11.90;99.90;;;;;;5144511;27;20039;-77
2023/12/24 11:57:24;;;;;;;8.65;2.47;;;11.90;99.90;;;;;;5110885;28;20044;-76
2023/12/24 11:59:50;;;;;;;11.95;3.20;;;12.00;99.90;;;;;;5102866;28;20511;-77
2023/12/24 12:02:16;;;;;;;12.25;3.90;;;12.00;99.90;;;;;;5126620;27;20074;-77
2023/12/24 12:04:41;;;;;;;8.68;2.78;;;11.90;99.90;;;;;;5132638;27;20046;-77
2023/12/24 12:07:08;;;;;;;9.35;2.63;;;12.00;99.90;;;;;;5126243;27;20127;-77
2023/12/24 12:09:33;;;;;;;7.55;2.95;;;11.90;99.90;;;;;;5127451;27;20024;-77
2023/12/24 12:11:59;;;;;;;10.32;2.75;;;11.90;99.90;;;;;;5109038;28;20100;-77
2023/12/24 12:14:25;;;;;;;17.25;3.38;;;11.90;99.90;;;;;;5111045;28;20458;-77
2023/12/24 12:16:50;;;;;;;14.00;3.33;;;12.00;99.90;;;;;;5102715;28;20043;-78
2023/12/24 12:19:16;;;;;;;11.48;3.08;;;12.00;99.90;;;;;;5128249;27;20047;-77
2023/12/24 12:21:44;;;;;;;9.00;3.03;;;11.90;99.90;;;;;;5129150;27;20046;-77
2023/12/24 12:24:09;;;;;;;7.88;2.42;;;11.90;99.90;;;;;;5095399;28;20039;-77
2023/12/24 12:26:35;;;;;;;9.52;3.20;;;12.00;99.90;;;;;;5109184;28;20480;-77
2023/12/24 12:29:01;;;;;;;11.48;2.60;;;12.00;99.90;;;;;;5129921;27;20057;-77
2023/12/24 12:31:26;;;;;;;10.65;3.00;;;11.90;99.90;;;;;;5127477;28;20035;-77
2023/12/24 12:33:52;;;;;;;8.98;2.85;;;11.90;99.90;;;;;;5145648;27;20044;-77
2023/12/24 12:36:17;;;;;;;16.70;3.90;;;11.90;99.90;;;;;;5144903;27;20055;-77
2023/12/24 12:38:43;;;;;;;11.73;2.97;;;12.00;99.90;;;;;;5113170;28;20039;-77
2023/12/24 12:41:09;;;;;;;11.15;2.88;;;11.90;99.90;;;;;;5115145;27;20396;-77
2023/12/24 12:43:35;;;;;;;7.32;2.10;;;11.90;99.90;;;;;;5115381;28;20076;-77
2023/12/24 12:46:00;;;;;;;8.13;2.78;;;12.00;99.90;;;;;;5111067;28;20036;-77